Kutaisi/Kopitnari International Airport

Airport
ICAO code: 
UGKO
IATA Code: 
KUT
Summary
ICAO Region: 
APAC
Territory: 
Location: 
Kutaisi,
Serving: 
Kutaisi
Elevation: 
223 ft
Coordinates: 
Aerial View: 
42° 10' 35.951" N, 42° 28' 57.299" E
Metar
Observation
UGKO 281400Z 23009KT 9999 BKN032 OVC047 22/19 Q1010 NOSIG
Station
KOPITNARI
Date/Time
2022-06-28 14:00:00
Wind direction
230°
Wind speed
09 kts
Lowest cloud amount
broken clouds
Temperature
22°C
Dew point
19°C
Humidity
83%
QNH
1010 hPa
Weather condition
n/a

Description

Kutaisi Airport also known as David the Builder Kutaisi International Airport is an airport located 14 km west of Kutaisi, the second largest city in Georgia and capital of the western region of Imereti. It is one of three international airports currently in operation in Georgia, along with Tbilisi International Airport serving the Georgian capital and Batumi International Airport near the Adjara Black Sea resort.

Runways

Designator Length Width Surface Rops
8/26 2500 44 CON No/No
Airport map: 
Aerial View: 

SKYbrary Partners:

Safety knowledge contributed by: